Terminal Aerodrome Forecast
Issued by NWS

Home | Current Version | Previous Version | Text Only | Print | Product List | Glossary On
Versions: 1 2 3 4 5 6 7 8 9 10 11 12 13 14 15 16 17 18 19 20 21 22
000
FTUS43 KGRB 011900 AAA
TAFAUW
TAF AMD
KAUW 011905Z 0119/0218 23009G15KT P6SM VCSH SCT020 OVC040
     FM012000 27010G18KT P6SM SCT020 BKN060
     FM020000 27010KT P6SM SCT020 SCT150
     FM020300 28005KT P6SM SCT250
     FM020800 28003KT 5SM BR SCT250
     FM021400 26007KT P6SM SCT035 BKN090=

USA.gov is the U.S. government's official web portal to all federal, state and local government web resources and services.